Time;durP1;ratioP1;P1;durP2;ratioP2;P2;SDS_P1;SDS_P2;PMS_P1;PMS_P2;Temp;Humidity;BMP_temperature;BMP_pressure;BME280_temperature;BME280_humidity;BME280_pressure;Samples;Min_cycle;Max_cycle;Signal;HPM_P1;HPM_P2
2021/12/13 00:02:28;;;;;;;76.88;45.75;;;;;;;;;;5027467;28;20031;-66
2021/12/13 00:05:09;;;;;;;83.78;49.13;;;;;;;;;;5029146;28;20022;-66
2021/12/13 00:07:41;;;;;;;89.20;47.53;;;;;;;;;;5027440;28;20045;-65
2021/12/13 00:10:11;;;;;;;86.88;48.17;;;;;;;;;;5028895;28;20044;-66
2021/12/13 00:12:40;;;;;;;80.15;46.63;;;;;;;;;;5028288;28;20033;-66
2021/12/13 00:15:06;;;;;;;;;;;;;;;;;;5027986;28;20031;-66
2021/12/13 00:17:43;;;;;;;89.35;49.85;;;;;;;;;;5028672;28;19917;-66
2021/12/13 00:20:27;;;;;;;76.95;46.85;;;;;;;;;;5028089;28;20025;-66
2021/12/13 00:22:54;;;;;;;82.88;48.05;;;;;;;;;;5028178;28;20053;-66
2021/12/13 00:25:22;;;;;;;83.63;47.50;;;;;;;;;;5028900;28;20037;-66
2021/12/13 00:27:51;;;;;;;80.78;47.33;;;;;;;;;;5028978;28;20041;-65
2021/12/13 00:30:37;;;;;;;88.50;50.85;;;;;;;;;;5028705;28;20156;-66
2021/12/13 00:33:08;;;;;;;80.40;45.78;;;;;;;;;;5026364;28;20022;-66
2021/12/13 00:35:38;;;;;;;80.13;44.58;;;;;;;;;;5028890;28;20052;-66
2021/12/13 00:38:06;;;;;;;77.65;45.60;;;;;;;;;;5029172;28;20071;-66
2021/12/13 00:40:37;;;;;;;80.35;45.35;;;;;;;;;;5032535;28;20029;-65
2021/12/13 00:43:03;;;;;;;70.90;42.13;;;;;;;;;;5031677;28;20025;-66
2021/12/13 00:45:31;;;;;;;74.40;46.25;;;;;;;;;;5045068;28;20497;-65
2021/12/13 00:47:58;;;;;;;70.22;44.92;;;;;;;;;;5052710;28;20037;-65
2021/12/13 00:50:37;;;;;;;76.95;44.65;;;;;;;;;;5050806;28;20029;-65
2021/12/13 00:53:03;;;;;;;79.93;46.03;;;;;;;;;;5051703;28;20032;-65
2021/12/13 00:55:32;;;;;;;73.03;45.65;;;;;;;;;;5052348;28;20496;-66
2021/12/13 00:57:58;;;;;;;;;;;;;;;;;;5051937;28;20087;-66
2021/12/13 01:00:36;;;;;;;73.88;45.13;;;;;;;;;;5051893;28;19912;-66
2021/12/13 01:03:10;;;;;;;74.35;43.58;;;;;;;;;;5051490;28;20154;-66
2021/12/13 01:05:59;;;;;;;69.55;42.67;;;;;;;;;;5054458;28;20052;-65
2021/12/13 01:08:44;;;;;;;70.18;43.85;;;;;;;;;;5053858;28;20025;-64
2021/12/13 01:11:13;;;;;;;73.13;44.55;;;;;;;;;;5054509;28;20033;-66
2021/12/13 01:13:42;;;;;;;72.82;46.13;;;;;;;;;;5052908;28;20036;-66
2021/12/13 01:19:25;;;;;;;70.30;43.47;;;;;;;;;;5055190;28;20167;-66
2021/12/13 01:21:54;;;;;;;62.50;42.45;;;;;;;;;;5096768;23;20500;-67
2021/12/13 01:24:41;;;;;;;72.53;45.08;;;;;;;;;;5092874;28;20470;-68
2021/12/13 01:27:07;;;;;;;60.08;40.97;;;;;;;;;;5093723;28;20065;-68
2021/12/13 01:29:33;;;;;;;63.72;42.38;;;;;;;;;;5092481;28;20017;-68
2021/12/13 01:32:01;;;;;;;62.60;40.35;;;;;;;;;;5091550;28;20020;-68
2021/12/13 01:34:28;;;;;;;61.95;42.10;;;;;;;;;;5093684;28;20028;-68
2021/12/13 01:37:08;;;;;;;58.95;41.30;;;;;;;;;;5093821;28;20095;-68
2021/12/13 01:39:37;;;;;;;61.35;41.88;;;;;;;;;;5093649;28;20020;-68
2021/12/13 01:42:05;;;;;;;60.15;42.20;;;;;;;;;;5074495;28;20089;-68
2021/12/13 01:44:33;;;;;;;51.97;36.72;;;;;;;;;;5093493;28;20089;-68
2021/12/13 01:47:11;;;;;;;64.13;43.90;;;;;;;;;;5093527;28;20024;-68
2021/12/13 01:49:39;;;;;;;61.95;41.95;;;;;;;;;;5092651;28;20028;-68
2021/12/13 01:52:05;;;;;;;;;;;;;;;;;;5092665;28;20067;-67
2021/12/13 01:54:31;;;;;;;65.57;43.08;;;;;;;;;;5074988;28;19904;-68
2021/12/13 01:57:11;;;;;;;66.10;40.35;;;;;;;;;;5093118;28;20020;-68
2021/12/13 02:02:08;;;;;;;65.95;41.50;;;;;;;;;;5092150;28;20426;-67
2021/12/13 02:04:34;;;;;;;;;;;;;;;;;;5093371;28;20434;-68
2021/12/13 02:07:02;;;;;;;60.92;40.80;;;;;;;;;;5093006;28;19929;-68
2021/12/13 02:09:34;;;;;;;58.40;41.15;;;;;;;;;;5074929;28;20023;-67
2021/12/13 02:12:01;;;;;;;63.70;40.80;;;;;;;;;;5092090;28;20065;-68
2021/12/13 02:14:31;;;;;;;59.92;39.03;;;;;;;;;;5092838;28;20480;-67
2021/12/13 02:17:10;;;;;;;57.25;39.83;;;;;;;;;;5092849;28;20041;-68
2021/12/13 02:19:39;;;;;;;62.70;41.38;;;;;;;;;;5074845;28;20039;-68
2021/12/13 02:22:05;;;;;;;;;;;;;;;;;;5092147;28;20134;-68
2021/12/13 02:24:31;;;;;;;56.70;37.25;;;;;;;;;;5074544;28;20010;-68
2021/12/13 02:26:59;;;;;;;58.10;38.10;;;;;;;;;;5074314;28;20024;-68
2021/12/13 02:29:34;;;;;;;55.60;37.70;;;;;;;;;;5092762;28;20020;-68
2021/12/13 02:32:00;;;;;;;62.00;38.58;;;;;;;;;;5073767;28;20020;-67
2021/12/13 02:34:30;;;;;;;52.17;37.33;;;;;;;;;;5074292;28;20104;-68
2021/12/13 02:36:56;;;;;;;55.13;38.75;;;;;;;;;;5092443;28;20115;-67
2021/12/13 02:39:27;;;;;;;55.22;35.88;;;;;;;;;;5074055;28;20051;-68
2021/12/13 02:41:53;;;;;;;57.75;36.97;;;;;;;;;;5073318;28;20107;-67
2021/12/13 02:44:30;;;;;;;53.40;37.28;;;;;;;;;;5074234;28;20373;-68
2021/12/13 02:47:06;;;;;;;51.13;36.47;;;;;;;;;;5092396;28;20024;-67
2021/12/13 02:49:33;;;;;;;54.03;35.90;;;;;;;;;;5092380;28;20031;-68
2021/12/13 02:52:00;;;;;;;55.67;34.55;;;;;;;;;;5091118;28;20028;-67
2021/12/13 02:54:29;;;;;;;51.40;35.13;;;;;;;;;;5091984;28;20038;-68
2021/12/13 02:56:55;;;;;;;;;;;;;;;;;;5092626;28;20030;-67
2021/12/13 02:59:22;;;;;;;48.55;34.03;;;;;;;;;;5073837;28;19907;-68
2021/12/13 03:02:01;;;;;;;52.72;36.30;;;;;;;;;;5072627;28;20024;-67
2021/12/13 03:04:28;;;;;;;50.78;32.38;;;;;;;;;;5091851;28;20085;-68
2021/12/13 03:07:04;;;;;;;55.08;36.03;;;;;;;;;;5091857;28;20421;-68
2021/12/13 03:09:32;;;;;;;45.95;33.75;;;;;;;;;;5091743;28;20027;-68
2021/12/13 03:11:59;;;;;;;52.53;34.42;;;;;;;;;;5072661;28;20123;-68
2021/12/13 03:14:34;;;;;;;51.38;32.90;;;;;;;;;;5091733;28;20074;-67
2021/12/13 03:17:14;;;;;;;48.97;34.30;;;;;;;;;;5073312;28;20073;-67
2021/12/13 03:19:43;;;;;;;52.53;34.63;;;;;;;;;;5091792;28;20438;-68
2021/12/13 03:22:12;;;;;;;57.17;36.72;;;;;;;;;;5090585;28;20047;-66
2021/12/13 03:24:38;;;;;;;56.22;35.60;;;;;;;;;;5091546;28;20031;-66
2021/12/13 03:27:10;;;;;;;48.50;34.72;;;;;;;;;;5073393;28;20023;-66
2021/12/13 03:29:54;;;;;;;53.53;34.97;;;;;;;;;;5091463;28;20035;-68
2021/12/13 03:32:21;;;;;;;49.72;33.78;;;;;;;;;;5090605;28;20070;-66
2021/12/13 03:35:19;;;;;;;50.38;35.35;;;;;;;;;;5091022;28;20103;-66
2021/12/13 03:37:45;;;;;;;;;;;;;;;;;;5047166;28;20097;-66
2021/12/13 03:40:16;;;;;;;49.88;33.78;;;;;;;;;;5073332;28;19904;-66
2021/12/13 03:42:46;;;;;;;56.42;37.65;;;;;;;;;;5090798;28;20024;-66
2021/12/13 03:45:15;;;;;;;50.42;34.97;;;;;;;;;;5091326;28;20045;-66
2021/12/13 03:47:45;;;;;;;57.00;37.58;;;;;;;;;;5073037;28;20529;-66
2021/12/13 03:50:14;;;;;;;53.92;38.42;;;;;;;;;;5091233;28;20480;-66
2021/12/13 03:52:43;;;;;;;56.03;39.28;;;;;;;;;;5090477;28;20483;-65
2021/12/13 03:55:09;;;;;;;53.53;35.15;;;;;;;;;;5073155;28;20024;-65
2021/12/13 03:57:38;;;;;;;56.58;38.20;;;;;;;;;;5091158;28;20035;-66
2021/12/13 04:00:05;;;;;;;54.47;37.92;;;;;;;;;;5091181;28;20063;-67
2021/12/13 04:02:33;;;;;;;55.08;36.83;;;;;;;;;;5072171;28;20020;-66
2021/12/13 04:05:02;;;;;;;59.58;39.17;;;;;;;;;;5072903;28;20023;-66
2021/12/13 04:07:27;;;;;;;;;;;;;;;;;;5073505;28;20032;-66
2021/12/13 04:09:55;;;;;;;54.42;36.97;;;;;;;;;;5091068;28;19904;-66
2021/12/13 04:12:25;;;;;;;58.55;37.55;;;;;;;;;;5072298;28;20028;-67
2021/12/13 04:14:58;;;;;;;57.15;36.97;;;;;;;;;;5094333;28;20024;-66
2021/12/13 04:18:30;;;;;;;60.90;39.83;;;;;;;;;;5076955;28;20024;-66
2021/12/13 04:20:23;;;;;;;62.92;39.08;;;;;;;;;;5077011;28;20020;-67
2021/12/13 04:22:51;;;;;;;56.53;37.83;;;;;;;;;;5094288;28;20103;-67
2021/12/13 04:25:22;;;;;;;56.13;37.93;;;;;;;;;;5076836;28;20028;-67
2021/12/13 04:27:48;;;;;;;55.65;38.35;;;;;;;;;;5094794;28;20438;-66
2021/12/13 04:30:14;;;;;;;60.33;38.28;;;;;;;;;;5076706;28;20384;-67
2021/12/13 04:32:44;;;;;;;60.72;36.53;;;;;;;;;;5094135;28;20074;-67
2021/12/13 04:35:12;;;;;;;64.30;40.00;;;;;;;;;;5076648;28;20024;-67
2021/12/13 04:37:41;;;;;;;52.40;37.10;;;;;;;;;;5094591;28;20448;-67
2021/12/13 04:40:09;;;;;;;54.90;38.97;;;;;;;;;;5094800;28;20077;-67
2021/12/13 04:42:35;;;;;;;54.83;37.53;;;;;;;;;;5075598;28;20024;-67
2021/12/13 04:45:01;;;;;;;58.70;39.85;;;;;;;;;;5094626;28;20012;-67
2021/12/13 04:47:30;;;;;;;62.30;40.65;;;;;;;;;;5076291;28;20484;-67
2021/12/13 04:50:07;;;;;;;64.03;41.97;;;;;;;;;;5076224;28;20032;-66
2021/12/13 04:52:34;;;;;;;55.55;37.92;;;;;;;;;;5075362;28;20114;-66
2021/12/13 04:55:00;;;;;;;57.55;40.25;;;;;;;;;;5076021;28;20020;-67
2021/12/13 04:57:27;;;;;;;60.03;39.58;;;;;;;;;;5075888;28;20488;-67
2021/12/13 04:59:55;;;;;;;58.40;38.55;;;;;;;;;;5076101;28;20012;-67
2021/12/13 05:02:22;;;;;;;58.42;37.42;;;;;;;;;;5093684;28;20460;-67
2021/12/13 05:04:54;;;;;;;60.92;38.53;;;;;;;;;;5075972;28;20028;-66
2021/12/13 05:07:20;;;;;;;56.75;37.97;;;;;;;;;;5093875;28;20020;-66
2021/12/13 05:09:47;;;;;;;54.35;37.63;;;;;;;;;;5075951;28;20735;-66
2021/12/13 05:12:15;;;;;;;60.70;41.15;;;;;;;;;;5093131;28;20012;-66
2021/12/13 05:14:41;;;;;;;58.00;37.47;;;;;;;;;;5094226;28;20488;-67
2021/12/13 05:17:11;;;;;;;57.83;40.30;;;;;;;;;;5093895;28;20024;-67
2021/12/13 05:19:39;;;;;;;57.25;37.45;;;;;;;;;;5094008;28;20028;-68
2021/12/13 05:22:07;;;;;;;57.38;37.70;;;;;;;;;;5092923;28;20107;-67
2021/12/13 05:24:36;;;;;;;57.75;38.22;;;;;;;;;;5073866;28;20032;-67
2021/12/13 05:27:02;;;;;;;56.88;40.55;;;;;;;;;;5093955;28;20383;-67
2021/12/13 05:29:42;;;;;;;56.47;39.05;;;;;;;;;;5093966;28;20099;-67
2021/12/13 05:32:13;;;;;;;60.65;39.13;;;;;;;;;;5093027;28;20024;-67
2021/12/13 05:34:42;;;;;;;58.10;36.45;;;;;;;;;;5075652;28;20028;-67
2021/12/13 05:37:09;;;;;;;61.83;40.28;;;;;;;;;;5075230;28;20464;-67
2021/12/13 05:39:36;;;;;;;62.20;39.47;;;;;;;;;;5075550;28;20024;-67
2021/12/13 05:42:06;;;;;;;63.65;39.13;;;;;;;;;;5092804;28;20017;-68
2021/12/13 05:44:34;;;;;;;57.80;38.05;;;;;;;;;;5093404;28;20027;-68
2021/12/13 05:47:01;;;;;;;59.58;39.13;;;;;;;;;;5075371;28;20027;-67
2021/12/13 05:49:33;;;;;;;59.17;37.60;;;;;;;;;;5075234;28;20099;-67
2021/12/13 05:52:08;;;;;;;59.97;38.45;;;;;;;;;;5089769;28;20438;-68
2021/12/13 05:54:36;;;;;;;55.25;37.92;;;;;;;;;;5057208;28;20028;-67
2021/12/13 05:57:08;;;;;;;58.78;37.20;;;;;;;;;;5074735;28;20024;-66
2021/12/13 05:59:39;;;;;;;53.55;34.80;;;;;;;;;;5083928;28;20032;-68
2021/12/13 06:02:06;;;;;;;59.72;38.42;;;;;;;;;;5071722;28;20016;-67
2021/12/13 06:04:38;;;;;;;60.53;39.00;;;;;;;;;;5071189;28;20036;-67
2021/12/13 06:07:33;;;;;;;58.80;36.33;;;;;;;;;;5072550;28;20473;-68
2021/12/13 06:10:18;;;;;;;54.33;35.50;;;;;;;;;;5054207;28;20036;-67
2021/12/13 06:12:47;;;;;;;52.80;35.60;;;;;;;;;;5053982;28;20016;-67
2021/12/13 06:15:16;;;;;;;51.97;34.83;;;;;;;;;;5072353;28;20025;-67
2021/12/13 06:18:05;;;;;;;52.03;34.97;;;;;;;;;;5072144;28;20028;-68
2021/12/13 06:20:33;;;;;;;50.55;33.13;;;;;;;;;;5057893;28;20036;-67
2021/12/13 06:23:20;;;;;;;51.20;34.75;;;;;;;;;;5071686;28;20059;-68
2021/12/13 06:25:47;;;;;;;49.80;33.03;;;;;;;;;;5085496;28;20043;-66
2021/12/13 06:28:18;;;;;;;52.00;35.03;;;;;;;;;;5074063;28;20102;-67
2021/12/13 06:30:51;;;;;;;53.47;34.78;;;;;;;;;;5074194;28;20507;-67
2021/12/13 06:33:17;;;;;;;49.58;33.55;;;;;;;;;;5073331;28;20503;-67
2021/12/13 06:35:43;;;;;;;56.47;37.20;;;;;;;;;;5091304;28;20050;-67
2021/12/13 06:38:22;;;;;;;54.40;35.00;;;;;;;;;;5073603;28;20462;-67
2021/12/13 06:41:00;;;;;;;54.20;36.00;;;;;;;;;;5092281;28;20073;-68
2021/12/13 06:43:32;;;;;;;56.35;36.40;;;;;;;;;;5073122;28;20377;-71
2021/12/13 06:45:59;;;;;;;54.10;35.80;;;;;;;;;;5092043;28;20422;-68
2021/12/13 06:48:58;;;;;;;54.70;35.05;;;;;;;;;;5073880;28;20476;-68
2021/12/13 06:51:37;;;;;;;58.15;35.75;;;;;;;;;;5073047;28;20111;-67
2021/12/13 06:54:09;;;;;;;59.75;37.88;;;;;;;;;;5071408;28;20028;-67
2021/12/13 06:56:38;;;;;;;60.40;38.13;;;;;;;;;;5053583;28;20409;-67
2021/12/13 06:59:06;;;;;;;58.17;36.72;;;;;;;;;;5071423;28;20099;-67
2021/12/13 07:01:33;;;;;;;57.25;36.72;;;;;;;;;;5053799;28;20416;-67
2021/12/13 07:04:00;;;;;;;55.42;35.67;;;;;;;;;;5071238;28;20040;-68
2021/12/13 07:06:27;;;;;;;59.40;36.77;;;;;;;;;;5071863;28;20055;-67
2021/12/13 07:09:04;;;;;;;57.03;35.97;;;;;;;;;;5071428;28;20032;-68
2021/12/13 07:11:38;;;;;;;52.63;37.17;;;;;;;;;;5071082;28;20489;-67
2021/12/13 07:14:06;;;;;;;50.85;34.20;;;;;;;;;;5071787;28;20028;-68
2021/12/13 07:16:37;;;;;;;45.70;32.55;;;;;;;;;;5071378;28;20040;-67
2021/12/13 07:19:18;;;;;;;51.30;33.70;;;;;;;;;;5071080;28;20099;-66
2021/12/13 07:22:01;;;;;;;48.72;32.05;;;;;;;;;;5083566;22;20404;-66
2021/12/13 07:24:29;;;;;;;53.42;34.35;;;;;;;;;;5054114;28;20021;-66
2021/12/13 07:26:58;;;;;;;49.28;33.85;;;;;;;;;;5054194;28;20078;-68
2021/12/13 07:29:29;;;;;;;47.28;32.50;;;;;;;;;;5071721;28;20021;-67
2021/12/13 07:32:13;;;;;;;46.60;32.25;;;;;;;;;;5070801;28;20056;-67
2021/12/13 07:35:05;;;;;;;49.53;31.60;;;;;;;;;;5071592;28;20392;-68
2021/12/13 07:37:40;;;;;;;45.53;30.27;;;;;;;;;;5066753;28;20040;-66
2021/12/13 07:40:21;;;;;;;43.78;29.23;;;;;;;;;;5071327;28;20027;-67
2021/12/13 07:43:10;;;;;;;43.17;29.55;;;;;;;;;;5053013;28;20048;-68
2021/12/13 07:45:49;;;;;;;42.22;28.05;;;;;;;;;;5057296;28;20055;-68
2021/12/13 07:48:15;;;;;;;;;;;;;;;;;;5053480;28;20032;-68
2021/12/13 07:50:42;;;;;;;43.00;26.13;;;;;;;;;;5053704;28;19950;-68
2021/12/13 07:53:12;;;;;;;42.17;28.15;;;;;;;;;;5052850;28;20041;-68
2021/12/13 07:55:45;;;;;;;38.20;25.05;;;;;;;;;;5053804;28;20064;-68
2021/12/13 07:58:13;;;;;;;38.88;27.23;;;;;;;;;;5053937;28;20515;-68
2021/12/13 08:00:40;;;;;;;40.70;25.27;;;;;;;;;;5071885;28;20029;-68
2021/12/13 08:03:12;;;;;;;39.70;24.75;;;;;;;;;;5053470;28;20109;-68
2021/12/13 08:05:49;;;;;;;37.60;23.98;;;;;;;;;;5053920;28;20027;-69
2021/12/13 08:08:21;;;;;;;38.33;23.70;;;;;;;;;;5072342;28;20078;-67
2021/12/13 08:10:49;;;;;;;35.95;22.88;;;;;;;;;;5071466;28;20028;-68
2021/12/13 08:13:20;;;;;;;35.60;22.33;;;;;;;;;;5053492;28;20189;-68
2021/12/13 08:16:06;;;;;;;35.20;22.23;;;;;;;;;;5071668;28;20503;-68
2021/12/13 08:18:36;;;;;;;37.35;22.98;;;;;;;;;;5053228;28;20030;-69
2021/12/13 08:21:08;;;;;;;32.42;20.95;;;;;;;;;;5053324;28;20029;-67
2021/12/13 08:23:39;;;;;;;33.75;23.27;;;;;;;;;;5070834;28;20021;-68
2021/12/13 08:26:08;;;;;;;33.25;21.42;;;;;;;;;;5053696;28;20060;-67
2021/12/13 08:28:39;;;;;;;37.08;22.02;;;;;;;;;;5071701;28;20089;-69
2021/12/13 08:31:07;;;;;;;34.45;22.38;;;;;;;;;;5053316;28;20020;-67
2021/12/13 08:33:40;;;;;;;30.57;19.30;;;;;;;;;;5070224;28;20059;-68
2021/12/13 08:36:09;;;;;;;29.63;19.02;;;;;;;;;;5071404;28;20035;-68
2021/12/13 08:38:49;;;;;;;31.77;18.23;;;;;;;;;;5071448;28;20051;-69
2021/12/13 08:41:15;;;;;;;31.27;18.52;;;;;;;;;;5053726;28;20112;-66
2021/12/13 08:43:46;;;;;;;30.30;19.95;;;8.50;99.90;;;;;;5071242;28;20048;-69
2021/12/13 08:46:25;;;;;;;33.03;20.75;;;;;;;;;;5071681;28;20089;-69
2021/12/13 08:48:52;;;;;;;33.83;21.02;;;;;;;;;;5071573;28;20108;-68
2021/12/13 08:51:23;;;;;;;32.78;20.75;;;;;;;;;;5053900;28;20032;-66
2021/12/13 08:54:09;;;;;;;31.95;21.85;;;;;;;;;;5058138;28;20083;-67
2021/12/13 08:56:41;;;;;;;35.30;21.52;;;;;;;;;;5051760;28;20041;-70
2021/12/13 08:59:10;;;;;;;27.88;19.58;;;;;;;;;;5051153;28;20025;-68
2021/12/13 09:02:01;;;;;;;29.60;18.88;;;;;;;;;;5053082;28;20024;-67
2021/12/13 09:04:30;;;;;;;34.40;21.73;;;;;;;;;;5044121;28;20039;-69
2021/12/13 09:06:57;;;;;;;31.58;19.90;;;;;;;;;;5054830;28;20416;-66
2021/12/13 09:09:23;;;;;;;29.52;19.85;;;;;;;;;;5053818;28;20032;-68
2021/12/13 09:11:57;;;;;;;29.83;19.23;;;;;;;;;;5053894;28;20075;-69
2021/12/13 09:14:35;;;;;;;30.65;18.45;;;;;;;;;;5053736;28;20101;-68
2021/12/13 09:17:22;;;;;;;28.77;17.67;;;;;;;;;;5054874;28;20056;-68
2021/12/13 09:19:50;;;;;;;29.13;18.05;;;;;;;;;;5054916;28;20033;-68
2021/12/13 09:22:37;;;;;;;29.08;18.50;;;;;;;;;;5052482;28;20472;-68
2021/12/13 09:25:09;;;;;;;30.40;18.38;;;;;;;;;;5053426;28;20017;-69
2021/12/13 09:27:37;;;;;;;30.83;19.30;;;;;;;;;;5052969;28;20100;-68
2021/12/13 09:30:14;;;;;;;29.83;18.08;;;;;;;;;;5054224;28;20029;-68
2021/12/13 09:32:43;;;;;;;27.45;16.33;;;;;;;;;;5052329;28;20085;-66
2021/12/13 09:35:18;;;;;;;27.23;16.65;;;;;;;;;;5054194;28;20017;-67
2021/12/13 09:37:44;;;;;;;25.90;15.30;;;;;;;;;;5036694;28;20080;-69
2021/12/13 09:40:11;;;;;;;26.80;15.88;;;;;;;;;;5036744;28;20021;-72
2021/12/13 09:42:51;;;;;;;27.65;17.17;;;;;;;;;;5054417;28;20389;-73
2021/12/13 09:45:26;;;;;;;28.33;16.10;;;;;;;;;;5036964;28;20025;-70
2021/12/13 09:47:53;;;;;;;29.38;16.00;;;;;;;;;;5055898;28;20033;-72
2021/12/13 09:50:22;;;;;;;25.35;15.27;;;;;;;;;;5062939;28;20104;-72
2021/12/13 09:52:48;;;;;;;25.98;14.48;;;;;;;;;;5039999;28;20024;-71
2021/12/13 09:55:24;;;;;;;28.52;15.05;;;;;;;;;;5060396;28;20029;-72
2021/12/13 09:57:53;;;;;;;26.80;15.35;;;;;;;;;;5056470;28;20025;-72
2021/12/13 10:00:23;;;;;;;28.27;15.57;;;;;;;;;;5055919;28;20027;-72
2021/12/13 10:02:52;;;;;;;27.48;16.00;;;;;;;;;;5042060;28;20025;-72
2021/12/13 10:05:21;;;;;;;25.45;14.70;;;;;;;;;;5042371;28;20044;-72
2021/12/13 10:07:50;;;;;;;25.17;14.77;;;;;;;;;;5056327;28;20060;-71
2021/12/13 10:10:19;;;;;;;26.13;14.88;;;;;;;;;;5074140;28;20028;-72
2021/12/13 10:12:47;;;;;;;24.90;14.00;;;;;;;;;;5072957;28;20020;-72
2021/12/13 10:15:15;;;;;;;25.23;14.95;;;;;;;;;;5056170;28;20031;-71
2021/12/13 10:17:44;;;;;;;26.58;13.85;;;;;;;;;;5053622;28;20060;-72
2021/12/13 10:20:10;;;;;;;;;;;;;;;;;;5036645;28;20024;-71
2021/12/13 10:22:36;;;;;;;28.58;15.20;;;;;;;;;;5047094;28;19957;-72
2021/12/13 10:25:19;;;;;;;24.48;13.15;;;;;;;;;;5073941;28;20082;-72
2021/12/13 10:27:46;;;;;;;24.20;14.10;;;;;;;;;;5066920;28;20029;-72
2021/12/13 10:30:19;;;;;;;24.88;14.57;;;;;;;;;;5041904;28;20420;-72
2021/12/13 10:32:46;;;;;;;25.83;13.73;;;;;;;;;;5059179;28;20169;-70
2021/12/13 10:35:14;;;;;;;23.63;13.18;;;;;;;;;;5050357;28;20114;-72
2021/12/13 10:37:42;;;;;;;23.30;12.93;;;;;;;;;;5047300;28;20028;-73
2021/12/13 10:40:14;;;;;;;24.30;12.70;;;;;;;;;;5073727;28;20052;-71
2021/12/13 10:42:42;;;;;;;23.73;12.55;;;;;;;;;;5050062;28;20021;-66
2021/12/13 10:45:11;;;;;;;28.80;13.60;;;;;;;;;;5060420;28;20024;-65
2021/12/13 10:47:41;;;;;;;23.33;13.20;;;;;;;;;;5061812;28;20388;-69
2021/12/13 10:50:09;;;;;;;25.00;13.93;;;;;;;;;;5064544;28;20009;-69
2021/12/13 10:52:36;;;;;;;24.80;12.43;;;;;;;;;;5069703;28;20020;-68
2021/12/13 10:55:07;;;;;;;25.38;13.05;;;;;;;;;;5051674;28;20068;-68
2021/12/13 10:57:43;;;;;;;24.02;12.85;;;9.00;99.90;;;;;;5034905;28;20477;-73
2021/12/13 11:00:24;;;;;;;23.15;12.95;;;9.20;99.90;;;;;;5035170;28;20032;-67
2021/12/13 11:02:59;;;;;;;23.67;12.48;;;9.20;99.90;;;;;;5034162;28;20116;-70
2021/12/13 11:05:28;;;;;;;22.88;11.23;;;9.30;99.90;;;;;;5052779;28;20021;-69
2021/12/13 11:07:55;;;;;;;23.63;12.40;;;9.20;99.90;;;;;;5034905;28;20048;-70
2021/12/13 11:10:27;;;;;;;25.67;13.07;;;9.20;99.90;;;;;;5052396;28;20020;-69
2021/12/13 11:12:56;;;;;;;24.35;13.85;;;9.20;99.90;;;;;;5042706;28;20016;-70
2021/12/13 11:15:24;;;;;;;25.70;12.98;;;;;;;;;;5055484;28;20689;-69
2021/12/13 11:17:50;;;;;;;23.58;13.75;;;9.20;99.90;;;;;;5065958;28;20025;-69
2021/12/13 11:20:31;;;;;;;27.05;13.30;;;9.40;99.90;;;;;;5055313;28;20083;-67
2021/12/13 11:22:57;;;;;;;24.13;12.63;;;9.40;99.90;;;;;;5050371;28;20025;-68
2021/12/13 11:25:30;;;;;;;24.20;12.73;;;9.40;99.90;;;;;;5050824;28;20564;-70
2021/12/13 11:27:57;;;;;;;24.42;12.07;;;9.40;99.90;;;;;;5052583;28;20499;-69
2021/12/13 11:30:26;;;;;;;24.42;12.88;;;9.40;99.90;;;;;;5051141;28;20048;-69
2021/12/13 11:32:57;;;;;;;27.10;13.30;;;9.30;99.90;;;;;;5050448;28;20369;-69
2021/12/13 11:35:53;;;;;;;24.02;13.48;;;9.30;99.90;;;;;;5050840;28;20040;-69
2021/12/13 11:38:47;;;;;;;23.27;11.80;;;9.30;99.90;;;;;;5067700;28;20033;-69
2021/12/13 11:41:37;;;;;;;22.65;12.60;;;9.40;99.90;;;;;;5050912;28;20025;-69
2021/12/13 11:44:22;;;;;;;24.85;12.43;;;9.30;99.90;;;;;;5050661;28;20388;-69
2021/12/13 11:47:28;;;;;;;24.38;12.55;;;9.30;99.90;;;;;;5050661;28;20120;-69
2021/12/13 11:50:27;;;;;;;24.40;12.70;;;9.30;99.90;;;;;;5021071;28;20033;-69
2021/12/13 11:53:30;;;;;;;25.42;12.45;;;9.30;99.90;;;;;;5054103;28;20016;-68
2021/12/13 11:56:26;;;;;;;25.02;12.57;;;9.30;99.90;;;;;;5054422;28;20025;-69
2021/12/13 11:59:25;;;;;;;23.13;11.75;;;9.30;99.90;;;;;;5053798;28;20040;-69
2021/12/13 12:02:03;;;;;;;21.70;11.85;;;9.30;99.90;;;;;;5025472;28;20055;-70
2021/12/13 12:05:05;;;;;;;25.35;14.45;;;9.40;99.90;;;;;;5072393;28;20372;-69
2021/12/13 12:07:56;;;;;;;26.08;13.15;;;9.50;99.90;;;;;;5055108;28;20508;-70
2021/12/13 12:10:52;;;;;;;25.10;11.43;;;9.40;99.90;;;;;;5053679;28;20508;-69
2021/12/13 12:13:51;;;;;;;20.23;10.27;;;9.50;99.90;;;;;;5070029;28;20076;-70
2021/12/13 12:16:21;;;;;;;23.92;11.45;;;9.50;99.90;;;;;;5034257;28;20480;-68
2021/12/13 12:18:50;;;;;;;20.83;11.20;;;9.60;99.90;;;;;;5034295;28;20481;-69
2021/12/13 12:21:38;;;;;;;23.95;12.20;;;9.60;99.90;;;;;;5033907;28;20025;-69
2021/12/13 12:24:08;;;;;;;24.23;12.43;;;9.50;99.90;;;;;;5034730;28;20022;-67
2021/12/13 12:26:34;;;;;;;23.75;11.07;;;9.60;99.90;;;;;;5034491;28;20044;-70
2021/12/13 12:29:03;;;;;;;23.65;10.85;;;9.50;99.90;;;;;;5052404;28;20025;-71
2021/12/13 12:31:35;;;;;;;19.73;10.10;;;9.50;99.90;;;;;;5034085;28;20029;-68
2021/12/13 12:34:02;;;;;;;21.48;10.57;;;9.50;99.90;;;;;;5034603;28;20082;-70
2021/12/13 12:37:08;;;;;;;25.58;11.48;;;9.50;99.90;;;;;;5055978;28;20036;-69
2021/12/13 12:39:54;;;;;;;22.98;11.38;;;9.50;99.90;;;;;;5038591;28;20029;-68
2021/12/13 12:42:30;;;;;;;21.88;10.85;;;9.60;99.90;;;;;;5055648;28;20105;-69
2021/12/13 12:44:56;;;;;;;21.35;11.40;;;9.60;99.90;;;;;;5056339;28;20055;-69
2021/12/13 12:48:08;;;;;;;24.83;11.35;;;9.60;99.90;;;;;;5048078;28;20068;-68
2021/12/13 12:50:58;;;;;;;23.50;11.27;;;9.50;99.90;;;;;;5056001;28;20052;-69
2021/12/13 12:53:42;;;;;;;24.27;12.20;;;9.50;99.90;;;;;;5055157;28;20107;-66
2021/12/13 12:56:34;;;;;;;25.02;11.70;;;9.60;99.90;;;;;;5073609;28;20456;-67
2021/12/13 12:59:00;;;;;;;21.05;10.32;;;9.50;99.90;;;;;;5055361;28;20127;-68
2021/12/13 13:01:36;;;;;;;22.00;10.90;;;9.60;99.90;;;;;;5073158;28;20159;-67
2021/12/13 13:04:16;;;;;;;21.98;11.23;;;9.60;99.90;;;;;;5055709;28;20032;-69
2021/12/13 13:06:59;;;;;;;28.00;14.55;;;9.50;99.90;;;;;;5073540;28;20025;-68
2021/12/13 13:09:39;;;;;;;23.85;10.35;;;9.50;99.90;;;;;;5073145;28;20052;-69
2021/12/13 13:12:05;;;;;;;21.02;11.40;;;9.50;99.90;;;;;;5054160;28;20025;-68
2021/12/13 13:14:32;;;;;;;21.67;10.73;;;9.50;99.90;;;;;;5055027;28;20058;-68
2021/12/13 13:17:03;;;;;;;23.52;9.55;;;9.50;99.90;;;;;;5072893;28;20107;-67
2021/12/13 13:19:47;;;;;;;25.65;11.70;;;9.50;99.90;;;;;;5072756;28;20107;-70
2021/12/13 13:22:30;;;;;;;19.65;9.68;;;9.50;99.90;;;;;;5059161;23;20564;-70
2021/12/13 13:25:03;;;;;;;21.13;10.95;;;9.60;99.90;;;;;;5022087;28;20025;-71
2021/12/13 13:27:30;;;;;;;21.95;11.70;;;9.60;99.90;;;;;;5020418;28;20513;-70
2021/12/13 13:29:57;;;;;;;21.77;10.20;;;9.50;99.90;;;;;;5021639;28;20021;-71
2021/12/13 13:32:24;;;;;;;21.95;10.40;;;9.50;99.90;;;;;;5025598;28;20104;-70
2021/12/13 13:34:54;;;;;;;22.45;9.95;;;9.50;99.90;;;;;;5017508;28;20041;-71
2021/12/13 13:37:32;;;;;;;22.23;10.13;;;9.50;99.90;;;;;;5021640;28;20120;-72
2021/12/13 13:40:03;;;;;;;20.30;9.32;;;9.50;99.90;;;;;;5023184;28;20040;-71
2021/12/13 13:42:38;;;;;;;22.25;10.77;;;9.60;99.90;;;;;;5019357;28;20076;-70
2021/12/13 13:45:21;;;;;;;21.30;10.07;;;9.60;99.90;;;;;;5016851;28;20018;-71
2021/12/13 13:47:54;;;;;;;18.92;9.40;;;9.60;99.90;;;;;;5022153;28;20017;-71
2021/12/13 13:50:32;;;;;;;22.20;9.88;;;9.60;99.90;;;;;;5028005;28;20037;-71
2021/12/13 13:53:04;;;;;;;19.25;9.15;;;9.60;99.90;;;;;;5016944;28;20116;-71
2021/12/13 13:55:35;;;;;;;22.80;10.75;;;9.60;99.90;;;;;;5020398;28;20757;-71
2021/12/13 13:58:05;;;;;;;19.65;9.73;;;9.60;99.90;;;;;;5029199;28;20124;-68
2021/12/13 14:00:42;;;;;;;18.35;9.27;;;9.60;99.90;;;;;;5010139;28;20029;-72
2021/12/13 14:03:10;;;;;;;21.85;9.57;;;9.60;99.90;;;;;;5009694;28;20128;-71
2021/12/13 14:05:40;;;;;;;22.63;9.35;;;9.60;99.90;;;;;;5011061;28;20113;-72
2021/12/13 14:08:22;;;;;;;20.90;10.38;;;9.60;99.90;;;;;;5010694;28;20045;-71
2021/12/13 14:10:49;;;;;;;19.40;9.68;;;9.50;99.90;;;;;;5010426;28;20034;-70
2021/12/13 14:13:15;;;;;;;20.55;9.73;;;9.50;99.90;;;;;;5008660;28;20033;-69
2021/12/13 14:15:44;;;;;;;20.42;9.50;;;9.50;99.90;;;;;;5010504;28;20351;-70
2021/12/13 14:18:14;;;;;;;19.88;9.85;;;9.50;99.90;;;;;;5008708;28;20087;-69
2021/12/13 14:20:48;;;;;;;19.67;8.73;;;9.50;99.90;;;;;;5009127;28;20030;-71
2021/12/13 14:23:13;;;;;;;23.23;9.32;;;9.50;99.90;;;;;;5007807;28;20659;-70
2021/12/13 14:26:14;;;;;;;20.27;9.50;;;9.60;99.90;;;;;;5009743;28;20041;-69
2021/12/13 14:28:39;;;;;;;20.98;9.00;;;9.50;99.90;;;;;;5009277;28;20036;-69
2021/12/13 14:31:23;;;;;;;20.60;8.45;;;9.50;99.90;;;;;;5026214;28;20022;-70
2021/12/13 14:33:56;;;;;;;18.58;9.20;;;9.50;99.90;;;;;;5009915;28;20030;-70